Time;durP1;ratioP1;P1;durP2;ratioP2;P2;SDS_P1;SDS_P2;PMS_P1;PMS_P2;Temp;Humidity;BMP_temperature;BMP_pressure;BME280_temperature;BME280_humidity;BME280_pressure;Samples;Min_cycle;Max_cycle;Signal;HPM_P1;HPM_P2
2023/10/26 00:00:40;;;;;;;0.73;0.45;;;13.70;99.90;;;;;;7392349;19;20158;-78
2023/10/26 00:03:06;;;;;;;0.40;0.40;;;13.80;99.90;;;;;;7392831;19;20150;-78
2023/10/26 00:05:32;;;;;;;0.32;0.30;;;13.80;99.90;;;;;;7391994;19;20166;-78
2023/10/26 00:07:58;;;;;;;0.20;0.20;;;13.90;99.90;;;;;;7392068;19;20130;-77
2023/10/26 00:10:23;;;;;;;0.40;0.32;;;13.90;99.90;;;;;;7390393;19;20505;-78
2023/10/26 00:12:49;;;;;;;0.20;0.20;;;13.80;99.90;;;;;;7392977;19;20150;-78
2023/10/26 00:15:16;;;;;;;0.28;0.28;;;13.80;99.90;;;;;;7392725;19;20150;-77
2023/10/26 00:17:43;;;;;;;0.28;0.28;;;13.90;99.90;;;;;;7392695;19;20147;-77
2023/10/26 00:20:10;;;;;;;0.43;0.40;;;13.90;99.90;;;;;;7395414;19;20151;-77
2023/10/26 00:22:36;;;;;;;0.20;0.20;;;14.00;99.90;;;;;;7392840;19;20162;-77
2023/10/26 00:25:03;;;;;;;0.38;0.38;;;14.00;99.90;;;;;;7392885;19;20154;-78
2023/10/26 00:27:29;;;;;;;0.30;0.30;;;14.00;99.90;;;;;;7392675;19;20151;-76
2023/10/26 00:29:54;;;;;;;2.28;0.40;;;14.00;99.90;;;;;;7390721;19;20142;-76
2023/10/26 00:32:22;;;;;;;0.20;0.20;;;14.00;99.90;;;;;;7392168;19;20135;-77
2023/10/26 00:34:47;;;;;;;1.17;0.60;;;13.90;99.90;;;;;;7391266;19;20604;-77
2023/10/26 00:37:13;;;;;;;0.20;0.20;;;14.00;99.90;;;;;;7391903;19;20174;-76
2023/10/26 00:39:39;;;;;;;0.28;0.28;;;13.80;99.90;;;;;;7392393;19;20606;-78
2023/10/26 00:42:05;;;;;;;0.40;0.40;;;13.90;99.90;;;;;;7394530;19;20155;-77
2023/10/26 00:44:30;;;;;;;0.60;0.40;;;13.90;99.90;;;;;;7391365;19;20150;-78
2023/10/26 00:46:57;;;;;;;0.30;0.30;;;13.90;99.90;;;;;;7392672;19;20399;-78
2023/10/26 00:49:22;;;;;;;0.30;0.30;;;13.90;99.90;;;;;;7391833;19;20138;-77
2023/10/26 00:51:55;;;;;;;0.30;0.30;;;13.90;99.90;;;;;;7392088;19;20138;-78
2023/10/26 00:54:22;;;;;;;0.52;0.45;;;13.80;99.90;;;;;;7390737;19;20135;-78
2023/10/26 00:56:50;;;;;;;0.20;0.20;;;14.00;99.90;;;;;;7391670;19;20488;-78
2023/10/26 00:59:17;;;;;;;0.30;0.30;;;13.90;99.90;;;;;;7391814;19;20131;-77
2023/10/26 01:01:45;;;;;;;0.17;0.17;;;13.90;99.90;;;;;;7391509;19;20142;-77
2023/10/26 01:04:14;;;;;;;0.35;0.35;;;13.90;99.90;;;;;;7393131;19;20135;-77
2023/10/26 01:06:41;;;;;;;0.20;0.20;;;13.80;99.90;;;;;;7391677;19;20164;-77
2023/10/26 01:09:08;;;;;;;0.20;0.20;;;13.80;99.90;;;;;;7389794;19;20603;-77
2023/10/26 01:11:39;;;;;;;0.30;0.30;;;13.60;99.90;;;;;;7393158;19;20503;-78
2023/10/26 01:14:06;;;;;;;0.80;0.30;;;13.60;99.90;;;;;;7397725;19;20138;-77
2023/10/26 01:16:32;;;;;;;0.30;0.30;;;13.60;99.90;;;;;;7398581;19;20198;-77
2023/10/26 01:18:59;;;;;;;0.17;0.17;;;13.40;99.90;;;;;;7396865;19;20151;-78
2023/10/26 01:21:27;;;;;;;0.30;0.30;;;13.30;99.90;;;;;;7397677;19;20662;-78
2023/10/26 01:23:53;;;;;;;0.28;0.28;;;13.40;99.90;;;;;;7399406;19;20167;-78
2023/10/26 01:26:19;;;;;;;0.20;0.20;;;13.40;99.90;;;;;;7399040;19;20147;-77
2023/10/26 01:28:45;;;;;;;0.28;0.28;;;13.40;99.90;;;;;;7397749;19;20503;-78
2023/10/26 01:31:10;;;;;;;0.50;0.50;;;13.40;99.90;;;;;;7400216;19;20131;-78
2023/10/26 01:33:36;;;;;;;0.30;0.30;;;13.30;99.90;;;;;;7395429;19;20135;-78
2023/10/26 01:36:02;;;;;;;1.17;0.63;;;13.40;99.90;;;;;;7397666;19;20205;-77
2023/10/26 01:38:28;;;;;;;1.25;0.40;;;13.40;99.90;;;;;;7399113;19;20151;-77
2023/10/26 01:40:53;;;;;;;0.25;0.25;;;13.40;99.90;;;;;;7397312;19;20126;-78
2023/10/26 01:43:24;;;;;;;0.40;0.40;;;13.30;99.90;;;;;;7397534;19;20209;-78
2023/10/26 01:45:50;;;;;;;0.23;0.20;;;13.40;99.90;;;;;;7396447;19;20131;-78
2023/10/26 01:48:15;;;;;;;0.28;0.28;;;13.50;99.90;;;;;;7397871;19;20158;-78
2023/10/26 01:50:41;;;;;;;0.30;0.30;;;13.50;99.90;;;;;;7398299;19;20501;-78
2023/10/26 01:53:07;;;;;;;0.20;0.20;;;13.40;99.90;;;;;;7394783;19;20126;-78
2023/10/26 01:55:33;;;;;;;0.20;0.20;;;13.30;99.90;;;;;;7398069;19;20146;-78
2023/10/26 01:57:58;;;;;;;0.75;0.57;;;13.20;99.90;;;;;;7396171;19;20150;-77
2023/10/26 02:00:25;;;;;;;0.40;0.40;;;13.30;99.90;;;;;;7396261;19;20156;-78
2023/10/26 02:02:50;;;;;;;0.40;0.40;;;13.40;99.90;;;;;;7396767;19;20181;-78
2023/10/26 02:05:16;;;;;;;1.75;0.30;;;13.20;99.90;;;;;;7396961;19;20651;-78
2023/10/26 02:07:42;;;;;;;0.80;0.37;;;13.30;99.90;;;;;;7398988;19;20210;-77
2023/10/26 02:10:12;;;;;;;0.30;0.30;;;13.30;99.90;;;;;;7395459;19;20159;-77
2023/10/26 02:12:40;;;;;;;0.20;0.20;;;13.30;99.90;;;;;;7396013;19;20147;-78
2023/10/26 02:15:06;;;;;;;0.50;0.40;;;13.50;99.90;;;;;;7397256;19;20166;-77
2023/10/26 02:17:32;;;;;;;0.40;0.30;;;13.50;99.90;;;;;;7397214;19;20498;-78
2023/10/26 02:19:58;;;;;;;0.30;0.30;;;13.30;99.90;;;;;;7398796;19;20166;-77
2023/10/26 02:22:23;;;;;;;0.35;0.25;;;13.20;99.90;;;;;;7397747;19;20218;-78
2023/10/26 02:24:49;;;;;;;0.30;0.30;;;13.80;99.90;;;;;;7396568;19;20142;-78
2023/10/26 02:27:15;;;;;;;0.75;0.40;;;13.20;99.90;;;;;;7396358;19;20475;-76
2023/10/26 02:29:40;;;;;;;0.30;0.30;;;13.40;99.90;;;;;;7397251;19;20162;-78
2023/10/26 02:32:07;;;;;;;0.50;0.50;;;13.20;99.90;;;;;;7396076;19;20142;-77
2023/10/26 02:34:32;;;;;;;0.68;0.40;;;13.30;99.90;;;;;;7394193;19;20214;-77
2023/10/26 02:36:59;;;;;;;0.60;0.30;;;13.30;99.90;;;;;;7394998;19;20146;-77
2023/10/26 02:39:26;;;;;;;0.20;0.20;;;13.40;99.90;;;;;;7395497;19;20158;-76
2023/10/26 02:41:52;;;;;;;1.38;0.45;;;13.30;99.90;;;;;;7397471;19;20150;-78
2023/10/26 02:44:17;;;;;;;0.23;0.23;;;13.40;99.90;;;;;;7395583;19;20149;-79
2023/10/26 02:46:43;;;;;;;0.30;0.30;;;13.30;99.90;;;;;;7394637;19;20139;-77
2023/10/26 02:49:09;;;;;;;0.37;0.37;;;13.40;99.90;;;;;;7396654;19;20135;-77
2023/10/26 02:51:34;;;;;;;0.25;0.25;;;13.30;99.90;;;;;;7396210;19;20490;-78
2023/10/26 02:54:00;;;;;;;0.82;0.57;;;13.40;99.90;;;;;;7394716;19;20179;-78
2023/10/26 02:56:26;;;;;;;0.20;0.20;;;13.40;99.90;;;;;;7393545;19;20150;-78
2023/10/26 02:58:52;;;;;;;0.43;0.43;;;13.30;99.90;;;;;;7394513;19;20263;-77
2023/10/26 03:01:18;;;;;;;0.20;0.20;;;13.20;99.90;;;;;;7394399;19;20138;-78
2023/10/26 03:03:44;;;;;;;0.30;0.30;;;13.20;99.90;;;;;;7394299;19;20883;-78
2023/10/26 03:06:09;;;;;;;0.30;0.30;;;13.10;99.90;;;;;;7392736;19;20142;-77
2023/10/26 03:08:35;;;;;;;0.53;0.40;;;13.20;99.90;;;;;;7392522;19;20222;-78
2023/10/26 03:11:01;;;;;;;0.20;0.20;;;13.20;99.90;;;;;;7396723;19;20618;-77
2023/10/26 03:13:26;;;;;;;0.40;0.40;;;13.50;99.90;;;;;;7394158;19;20659;-76
2023/10/26 03:15:53;;;;;;;0.38;0.30;;;13.00;99.90;;;;;;7397101;19;20146;-78
2023/10/26 03:18:18;;;;;;;0.53;0.37;;;12.90;99.90;;;;;;7396176;19;20615;-77
2023/10/26 03:20:44;;;;;;;0.40;0.40;;;13.00;99.90;;;;;;7395537;19;20127;-77
2023/10/26 03:23:10;;;;;;;0.37;0.37;;;13.10;99.90;;;;;;7397147;19;20139;-77
2023/10/26 03:25:36;;;;;;;0.65;0.47;;;13.20;99.90;;;;;;7396713;19;20876;-78
2023/10/26 03:28:02;;;;;;;0.30;0.30;;;13.30;99.90;;;;;;7396921;19;20190;-77
2023/10/26 03:30:28;;;;;;;0.35;0.35;;;13.20;99.90;;;;;;7396483;19;20126;-77
2023/10/26 03:32:54;;;;;;;0.90;0.50;;;13.10;99.90;;;;;;7394174;19;20158;-76
2023/10/26 03:35:19;;;;;;;0.30;0.30;;;13.10;99.90;;;;;;7391663;19;20158;-77
2023/10/26 03:37:45;;;;;;;0.30;0.30;;;13.30;99.90;;;;;;7394518;19;20585;-77
2023/10/26 03:40:13;;;;;;;0.30;0.30;;;13.00;99.90;;;;;;7395150;19;20159;-76
2023/10/26 03:42:39;;;;;;;0.75;0.32;;;12.60;99.90;;;;;;7392964;19;20146;-78
2023/10/26 03:45:05;;;;;;;0.20;0.20;;;12.60;99.90;;;;;;7393639;19;20194;-78
2023/10/26 03:47:31;;;;;;;0.45;0.45;;;12.50;99.90;;;;;;7393961;19;20134;-76
2023/10/26 03:49:56;;;;;;;0.47;0.47;;;12.70;99.90;;;;;;7392820;19;20179;-77
2023/10/26 03:52:22;;;;;;;0.35;0.35;;;12.90;99.90;;;;;;7394513;19;20146;-76
2023/10/26 03:54:48;;;;;;;0.63;0.30;;;12.80;99.90;;;;;;7394824;19;20160;-76
2023/10/26 03:57:15;;;;;;;0.20;0.20;;;12.90;99.90;;;;;;7391829;19;20154;-76
2023/10/26 03:59:41;;;;;;;0.60;0.40;;;12.70;99.90;;;;;;7394936;19;20579;-77
2023/10/26 04:02:07;;;;;;;0.50;0.50;;;12.50;99.90;;;;;;7394968;19;20635;-77
2023/10/26 04:04:34;;;;;;;0.80;0.47;;;12.60;99.90;;;;;;7392976;19;20161;-75
2023/10/26 04:07:01;;;;;;;0.27;0.27;;;12.40;99.90;;;;;;7390501;19;20187;-77
2023/10/26 04:09:28;;;;;;;0.40;0.30;;;12.20;99.90;;;;;;7395127;19;20161;-76
2023/10/26 04:11:54;;;;;;;0.50;0.40;;;12.00;99.90;;;;;;7392134;19;20142;-76
2023/10/26 04:14:20;;;;;;;0.88;0.30;;;12.20;99.90;;;;;;7391813;19;20162;-78
2023/10/26 04:16:49;;;;;;;0.50;0.50;;;12.30;99.90;;;;;;7391878;19;20134;-76
2023/10/26 04:19:15;;;;;;;0.40;0.40;;;12.30;99.90;;;;;;7393207;19;20143;-76
2023/10/26 04:21:41;;;;;;;1.00;0.60;;;12.20;99.90;;;;;;7392699;19;20804;-76
2023/10/26 04:24:07;;;;;;;0.30;0.30;;;12.40;99.90;;;;;;7394014;19;20134;-76
2023/10/26 04:26:33;;;;;;;1.00;0.77;;;12.40;99.90;;;;;;7391362;19;20142;-76
2023/10/26 04:29:01;;;;;;;1.33;0.70;;;12.40;99.90;;;;;;7392183;19;20201;-76
2023/10/26 04:31:27;;;;;;;0.30;0.30;;;12.70;99.90;;;;;;7393368;19;20209;-78
2023/10/26 04:33:53;;;;;;;0.52;0.47;;;12.80;99.90;;;;;;7393365;19;20557;-77
2023/10/26 04:36:23;;;;;;;0.40;0.40;;;12.80;99.90;;;;;;7392553;19;20184;-77
2023/10/26 04:38:49;;;;;;;0.30;0.30;;;13.00;99.90;;;;;;7392892;19;20198;-78
2023/10/26 04:41:15;;;;;;;0.30;0.30;;;13.00;99.90;;;;;;7392698;19;20135;-78
2023/10/26 04:43:41;;;;;;;0.28;0.28;;;12.90;99.90;;;;;;7392820;19;20135;-77
2023/10/26 04:46:06;;;;;;;0.80;0.40;;;12.90;99.90;;;;;;7394997;19;20518;-78
2023/10/26 04:48:33;;;;;;;0.40;0.30;;;12.90;99.90;;;;;;7399612;19;20362;-78
2023/10/26 04:50:59;;;;;;;0.87;0.50;;;13.00;99.90;;;;;;7399242;19;20150;-77
2023/10/26 04:53:24;;;;;;;0.40;0.40;;;13.00;99.90;;;;;;7396279;19;20133;-78
2023/10/26 04:55:50;;;;;;;0.50;0.40;;;13.00;99.90;;;;;;7398796;19;20194;-77
2023/10/26 04:58:16;;;;;;;0.70;0.40;;;13.00;99.90;;;;;;7400081;19;20135;-77
2023/10/26 05:00:42;;;;;;;0.43;0.43;;;13.00;99.90;;;;;;7399664;19;20138;-78
2023/10/26 05:03:08;;;;;;;0.35;0.35;;;13.00;99.90;;;;;;7399336;19;20138;-78
2023/10/26 05:05:35;;;;;;;0.47;0.47;;;13.10;99.90;;;;;;7400311;19;20222;-79
2023/10/26 05:08:01;;;;;;;0.47;0.32;;;13.00;99.90;;;;;;7400370;19;20147;-79
2023/10/26 05:10:27;;;;;;;0.43;0.40;;;13.00;99.90;;;;;;7399465;19;20131;-78
2023/10/26 05:12:53;;;;;;;0.63;0.57;;;13.00;99.90;;;;;;7396973;19;20150;-78
2023/10/26 05:15:19;;;;;;;0.97;0.53;;;12.90;99.90;;;;;;7398550;19;20138;-77
2023/10/26 05:17:45;;;;;;;0.45;0.45;;;13.00;99.90;;;;;;7397051;19;20131;-79
2023/10/26 05:20:11;;;;;;;0.70;0.40;;;13.00;99.90;;;;;;7399143;19;20577;-78
2023/10/26 05:22:37;;;;;;;0.30;0.30;;;13.00;99.90;;;;;;7401242;19;20147;-79
2023/10/26 05:25:08;;;;;;;0.43;0.35;;;13.00;99.90;;;;;;7399264;19;20244;-77
2023/10/26 05:27:33;;;;;;;0.40;0.30;;;12.90;99.90;;;;;;7400170;19;20143;-77
2023/10/26 05:29:59;;;;;;;1.45;0.50;;;12.90;99.90;;;;;;7397995;19;20129;-78
2023/10/26 05:32:27;;;;;;;0.67;0.67;;;13.00;99.90;;;;;;7394763;19;20127;-77
2023/10/26 05:34:52;;;;;;;0.60;0.60;;;13.00;99.90;;;;;;7397036;19;20144;-76
2023/10/26 05:37:19;;;;;;;2.10;1.00;;;13.00;99.90;;;;;;7395874;19;20198;-76
2023/10/26 05:39:45;;;;;;;0.73;0.60;;;13.10;99.90;;;;;;7397669;19;20146;-76
2023/10/26 05:42:10;;;;;;;0.40;0.40;;;13.00;99.90;;;;;;7396782;19;20157;-77
2023/10/26 05:44:36;;;;;;;0.83;0.40;;;12.70;99.90;;;;;;7396275;19;20146;-78
2023/10/26 05:47:02;;;;;;;0.85;0.50;;;12.90;99.90;;;;;;7394976;19;20146;-78
2023/10/26 05:49:27;;;;;;;0.70;0.55;;;12.80;99.90;;;;;;7397368;19;20134;-78
2023/10/26 05:51:53;;;;;;;0.30;0.30;;;12.90;99.90;;;;;;7396488;19;20141;-76
2023/10/26 05:54:19;;;;;;;0.40;0.40;;;12.90;99.90;;;;;;7395404;19;20146;-76
2023/10/26 05:56:45;;;;;;;0.20;0.20;;;12.90;99.90;;;;;;7395356;19;20159;-77
2023/10/26 05:59:11;;;;;;;0.60;0.60;;;13.00;99.90;;;;;;7396789;19;20596;-78
2023/10/26 06:01:36;;;;;;;0.50;0.40;;;13.00;99.90;;;;;;7392601;19;20127;-79
2023/10/26 06:04:02;;;;;;;0.30;0.30;;;13.00;99.90;;;;;;7398277;19;20135;-81
2023/10/26 06:06:29;;;;;;;0.63;0.40;;;13.10;99.90;;;;;;7396244;19;20169;-79
2023/10/26 06:08:55;;;;;;;0.30;0.30;;;13.10;99.90;;;;;;7397025;19;20143;-78
2023/10/26 06:11:21;;;;;;;0.40;0.40;;;13.20;99.90;;;;;;7394892;19;20151;-78
2023/10/26 06:13:47;;;;;;;0.75;0.60;;;13.20;99.90;;;;;;7392775;19;20186;-79
2023/10/26 06:16:16;;;;;;;0.50;0.50;;;13.20;99.90;;;;;;7395822;19;20375;-78
2023/10/26 06:18:42;;;;;;;0.77;0.60;;;13.20;99.90;;;;;;7398369;19;20126;-78
2023/10/26 06:21:08;;;;;;;0.33;0.30;;;13.10;99.90;;;;;;7396455;19;20127;-78
2023/10/26 06:23:35;;;;;;;0.40;0.40;;;13.20;99.90;;;;;;7396485;19;20146;-80
2023/10/26 06:26:02;;;;;;;0.40;0.40;;;13.30;99.90;;;;;;7397460;19;20146;-80
2023/10/26 06:28:28;;;;;;;0.67;0.50;;;13.40;99.90;;;;;;7395805;19;20172;-81
2023/10/26 06:30:55;;;;;;;0.40;0.40;;;13.30;99.90;;;;;;7398794;19;20516;-80
2023/10/26 06:33:21;;;;;;;1.95;1.27;;;13.00;99.90;;;;;;7395940;19;20159;-80
2023/10/26 06:35:48;;;;;;;1.00;0.80;;;13.10;99.90;;;;;;7397417;19;20127;-80
2023/10/26 06:38:13;;;;;;;0.73;0.63;;;13.30;99.90;;;;;;7397391;19;20147;-81
2023/10/26 06:40:39;;;;;;;0.57;0.40;;;13.10;99.90;;;;;;7397918;19;20158;-81
2023/10/26 06:43:05;;;;;;;0.50;0.50;;;13.20;99.90;;;;;;7397415;19;20154;-80
2023/10/26 06:45:31;;;;;;;0.37;0.37;;;13.20;99.90;;;;;;7396437;19;20154;-80
2023/10/26 06:47:56;;;;;;;0.40;0.40;;;13.50;99.90;;;;;;7396405;19;20142;-79
2023/10/26 06:50:23;;;;;;;0.47;0.40;;;13.20;99.90;;;;;;7396169;19;20138;-79
2023/10/26 06:52:49;;;;;;;0.30;0.30;;;13.30;99.90;;;;;;7395615;19;20560;-79
2023/10/26 06:55:15;;;;;;;5.50;3.05;;;13.40;99.90;;;;;;7397176;19;20138;-78
2023/10/26 06:57:41;;;;;;;0.75;0.73;;;13.40;99.90;;;;;;7397066;19;20158;-80
2023/10/26 07:00:08;;;;;;;0.40;0.40;;;13.20;99.90;;;;;;7395528;19;20652;-79
2023/10/26 07:02:34;;;;;;;1.98;1.45;;;13.20;99.90;;;;;;7396236;19;20176;-79
2023/10/26 07:05:02;;;;;;;0.65;0.65;;;13.40;99.90;;;;;;7395887;19;20214;-80
2023/10/26 07:07:30;;;;;;;0.90;0.63;;;13.40;99.90;;;;;;7394619;19;20155;-79
2023/10/26 07:09:57;;;;;;;0.40;0.40;;;13.50;99.90;;;;;;7392252;19;20231;-79
2023/10/26 07:12:23;;;;;;;0.40;0.38;;;13.40;99.90;;;;;;7395516;19;21149;-78
2023/10/26 07:14:54;;;;;;;1.17;0.85;;;13.50;99.90;;;;;;7395320;19;20139;-79
2023/10/26 07:17:23;;;;;;;0.82;0.50;;;13.50;99.90;;;;;;7395230;19;20170;-80
2023/10/26 07:19:52;;;;;;;0.60;0.60;;;13.50;99.90;;;;;;7397366;19;20206;-79
2023/10/26 07:22:18;;;;;;;0.43;0.40;;;13.60;99.90;;;;;;7394366;19;20138;-79
2023/10/26 07:24:43;;;;;;;0.60;0.50;;;13.60;99.90;;;;;;7395788;19;20125;-79
2023/10/26 07:27:09;;;;;;;1.08;0.50;;;13.70;99.90;;;;;;7393966;19;20186;-77
2023/10/26 07:29:35;;;;;;;1.02;0.50;;;13.70;99.90;;;;;;7393617;19;20157;-76
2023/10/26 07:32:02;;;;;;;0.40;0.40;;;13.70;99.90;;;;;;7390044;19;20143;-77
2023/10/26 07:34:27;;;;;;;0.40;0.40;;;13.70;99.90;;;;;;7396441;19;20173;-77
2023/10/26 07:36:53;;;;;;;0.50;0.50;;;13.50;99.90;;;;;;7391419;19;20154;-76
2023/10/26 07:39:19;;;;;;;0.80;0.80;;;13.50;99.90;;;;;;7392635;19;20130;-77
2023/10/26 07:41:45;;;;;;;0.90;0.70;;;13.50;99.90;;;;;;7390839;19;20138;-75
2023/10/26 07:44:10;;;;;;;0.82;0.70;;;13.70;99.90;;;;;;7391887;19;20553;-75
2023/10/26 07:46:36;;;;;;;0.90;0.68;;;13.90;99.90;;;;;;7391173;19;20133;-76
2023/10/26 07:49:03;;;;;;;0.40;0.40;;;14.00;99.90;;;;;;7391270;19;20133;-75
2023/10/26 07:51:28;;;;;;;0.60;0.60;;;14.10;99.90;;;;;;7393239;19;20604;-77
2023/10/26 07:53:54;;;;;;;1.67;0.80;;;14.10;99.90;;;;;;7391660;19;20138;-77
2023/10/26 07:56:20;;;;;;;1.65;0.50;;;14.10;99.90;;;;;;7391300;19;20171;-78
2023/10/26 07:58:46;;;;;;;0.55;0.52;;;14.10;99.90;;;;;;7391253;19;20164;-79
2023/10/26 08:01:12;;;;;;;0.45;0.45;;;14.10;99.90;;;;;;7395858;19;20130;-77
2023/10/26 08:03:38;;;;;;;1.05;0.75;;;14.10;99.90;;;;;;7394277;19;20399;-78
2023/10/26 08:06:06;;;;;;;0.73;0.63;;;14.20;99.90;;;;;;7395294;19;20514;-79
2023/10/26 08:08:32;;;;;;;0.80;0.70;;;14.00;99.90;;;;;;7392744;19;20170;-78
2023/10/26 08:11:10;;;;;;;0.85;0.52;;;14.10;99.90;;;;;;7395841;19;20604;-81
2023/10/26 08:13:36;;;;;;;0.93;0.60;;;14.20;99.90;;;;;;7391817;19;20134;-77
2023/10/26 08:16:02;;;;;;;0.40;0.40;;;14.20;99.90;;;;;;7391190;19;20149;-77
2023/10/26 08:18:28;;;;;;;0.82;0.40;;;14.20;99.90;;;;;;7391736;19;20135;-79
2023/10/26 08:20:54;;;;;;;0.63;0.40;;;14.10;99.90;;;;;;7392207;19;20201;-78
2023/10/26 08:23:20;;;;;;;1.20;0.38;;;14.00;99.90;;;;;;7389718;19;20146;-76
2023/10/26 08:25:47;;;;;;;0.50;0.50;;;14.10;99.90;;;;;;7391089;19;20148;-77
2023/10/26 08:28:14;;;;;;;0.40;0.40;;;14.20;99.90;;;;;;7391983;19;20162;-78
2023/10/26 08:30:39;;;;;;;1.52;0.93;;;14.10;99.90;;;;;;7391915;19;20138;-76
2023/10/26 08:33:06;;;;;;;0.63;0.63;;;14.00;99.90;;;;;;7391813;19;20137;-77
2023/10/26 08:35:32;;;;;;;0.82;0.73;;;14.10;99.90;;;;;;7391571;19;20147;-76
2023/10/26 08:37:58;;;;;;;2.05;1.10;;;14.20;99.90;;;;;;7391449;19;20131;-76
2023/10/26 08:40:24;;;;;;;0.68;0.68;;;14.20;99.90;;;;;;7391339;19;20143;-78
2023/10/26 08:42:50;;;;;;;1.80;0.70;;;14.20;99.90;;;;;;7393903;19;20169;-79
2023/10/26 08:45:23;;;;;;;1.98;0.90;;;14.10;99.90;;;;;;7392787;19;20131;-80
2023/10/26 08:47:52;;;;;;;0.93;0.82;;;14.00;99.90;;;;;;7401799;19;20130;-79
2023/10/26 08:50:22;;;;;;;0.70;0.60;;;14.00;99.90;;;;;;7394912;19;20154;-76
2023/10/26 08:52:48;;;;;;;0.40;0.40;;;13.90;99.90;;;;;;7392326;19;20166;-77
2023/10/26 08:55:15;;;;;;;1.80;1.60;;;14.20;99.90;;;;;;7391043;19;20150;-79
2023/10/26 08:57:51;;;;;;;1.45;1.25;;;14.20;99.90;;;;;;7391919;19;20126;-77
2023/10/26 09:00:18;;;;;;;1.13;0.80;;;14.10;99.90;;;;;;7393620;19;20140;-77
2023/10/26 09:02:45;;;;;;;0.70;0.50;;;14.30;99.90;;;;;;7391519;19;20143;-75
2023/10/26 09:05:11;;;;;;;0.73;0.73;;;14.30;99.90;;;;;;7390061;19;20138;-79
2023/10/26 09:07:38;;;;;;;0.75;0.50;;;14.40;99.90;;;;;;7393154;19;20134;-78
2023/10/26 09:10:04;;;;;;;1.20;0.95;;;14.30;99.90;;;;;;7388098;19;20548;-77
2023/10/26 09:12:30;;;;;;;1.40;1.13;;;14.30;99.90;;;;;;7390369;19;20155;-78
2023/10/26 09:15:05;;;;;;;2.15;1.38;;;14.40;99.90;;;;;;7392122;19;20139;-78
2023/10/26 09:17:32;;;;;;;5.72;3.50;;;14.20;99.90;;;;;;7392956;19;20207;-79
2023/10/26 09:20:14;;;;;;;3.88;2.15;;;14.10;99.90;;;;;;7391431;19;20166;-78
2023/10/26 09:22:40;;;;;;;4.18;2.53;;;14.30;99.90;;;;;;7394903;19;20763;-79
2023/10/26 09:25:07;;;;;;;2.53;2.10;;;14.60;99.90;;;;;;7390859;19;20145;-78
2023/10/26 09:27:34;;;;;;;1.50;0.98;;;14.50;99.90;;;;;;7391805;19;20143;-78
2023/10/26 09:30:00;;;;;;;1.45;0.50;;;14.60;99.90;;;;;;7394149;19;20233;-78
2023/10/26 09:32:36;;;;;;;0.68;0.60;;;14.60;99.90;;;;;;7395241;19;20131;-80
2023/10/26 09:35:03;;;;;;;1.33;0.40;;;14.50;99.90;;;;;;7398969;19;20232;-78
2023/10/26 09:37:29;;;;;;;0.45;0.40;;;14.40;99.90;;;;;;7399952;19;20138;-80
2023/10/26 09:39:57;;;;;;;0.75;0.75;;;14.50;99.90;;;;;;7400949;19;20139;-80
2023/10/26 09:42:25;;;;;;;1.45;1.05;;;14.50;99.90;;;;;;7401897;19;20144;-80
2023/10/26 09:44:51;;;;;;;2.97;1.48;;;14.50;99.90;;;;;;7399473;19;20142;-79
2023/10/26 09:47:17;;;;;;;1.48;1.00;;;14.50;99.90;;;;;;7399833;19;20571;-79
2023/10/26 09:49:43;;;;;;;5.50;3.65;;;14.40;99.90;;;;;;7398705;19;20134;-79
2023/10/26 09:52:08;;;;;;;7.75;3.03;;;14.30;99.90;;;;;;7398335;19;20150;-78
2023/10/26 09:54:39;;;;;;;1.80;1.40;;;14.20;99.90;;;;;;7399202;19;20149;-77
2023/10/26 09:57:21;;;;;;;1.10;0.70;;;14.20;99.90;;;;;;7398236;19;20595;-79
2023/10/26 09:59:52;;;;;;;1.20;1.10;;;14.10;99.90;;;;;;7400138;19;20139;-79
2023/10/26 10:02:19;;;;;;;2.03;1.02;;;14.10;99.90;;;;;;7400959;19;20131;-80
2023/10/26 10:04:46;;;;;;;1.25;1.00;;;14.00;99.90;;;;;;7397250;19;20587;-77
2023/10/26 10:07:39;;;;;;;4.33;3.23;;;13.90;99.90;;;;;;7394751;19;20619;-79
2023/10/26 10:10:12;;;;;;;6.45;4.63;;;13.60;99.90;;;;;;7394271;19;20735;-79
2023/10/26 10:12:38;;;;;;;2.17;1.40;;;13.60;99.90;;;;;;7398545;19;20562;-79
2023/10/26 10:15:09;;;;;;;2.03;1.48;;;13.70;99.90;;;;;;7398322;19;20235;-80
2023/10/26 10:17:44;;;;;;;1.30;1.15;;;13.70;99.90;;;;;;7398406;19;20236;-81
2023/10/26 10:20:19;;;;;;;1.10;1.00;;;13.80;99.90;;;;;;7399667;19;20209;-82
2023/10/26 10:22:46;;;;;;;1.00;0.90;;;13.60;99.90;;;;;;7397535;19;20151;-80
2023/10/26 10:25:13;;;;;;;1.37;1.10;;;13.60;99.90;;;;;;7398373;19;20151;-81
2023/10/26 10:27:48;;;;;;;1.13;1.00;;;13.50;99.90;;;;;;7398039;19;20198;-82
2023/10/26 10:30:16;;;;;;;1.02;0.90;;;13.70;99.90;;;;;;7397668;19;20149;-82
2023/10/26 10:32:46;;;;;;;1.00;0.90;;;13.70;99.90;;;;;;7394810;19;20164;-81
2023/10/26 10:35:32;;;;;;;1.10;1.00;;;13.80;99.90;;;;;;7398447;19;20139;-81
2023/10/26 10:38:14;;;;;;;1.47;1.17;;;13.80;99.90;;;;;;7396469;19;20229;-80
2023/10/26 10:41:01;;;;;;;1.37;0.90;;;13.50;99.90;;;;;;7398299;19;20135;-79
2023/10/26 10:43:34;;;;;;;1.70;0.87;;;13.50;99.90;;;;;;7396825;19;20559;-82
2023/10/26 10:46:09;;;;;;;1.07;1.00;;;13.60;99.90;;;;;;7396717;19;20608;-79
2023/10/26 10:48:36;;;;;;;3.15;0.95;;;13.60;99.90;;;;;;7400762;19;20127;-79
2023/10/26 10:51:01;;;;;;;2.00;1.53;;;13.60;99.90;;;;;;7397755;19;20130;-78
2023/10/26 10:53:29;;;;;;;2.10;1.60;;;13.70;99.90;;;;;;7395288;19;20127;-79
2023/10/26 10:55:55;;;;;;;1.77;1.00;;;13.70;99.90;;;;;;7396344;19;20134;-79
2023/10/26 10:58:21;;;;;;;1.10;1.00;;;13.80;99.90;;;;;;7398391;19;20135;-80
2023/10/26 11:00:48;;;;;;;1.20;1.10;;;13.70;99.90;;;;;;7397603;19;20916;-78
2023/10/26 11:03:24;;;;;;;1.20;0.80;;;13.70;99.90;;;;;;7396183;19;20215;-81
2023/10/26 11:05:50;;;;;;;1.20;0.80;;;13.70;99.90;;;;;;7395473;19;20180;-80
2023/10/26 11:08:16;;;;;;;1.20;0.83;;;13.80;99.90;;;;;;7395778;19;20645;-79
2023/10/26 11:10:48;;;;;;;0.70;0.70;;;13.90;99.90;;;;;;7398184;19;20143;-79
2023/10/26 11:13:19;;;;;;;1.07;0.80;;;13.90;99.90;;;;;;7394468;19;20727;-80
2023/10/26 11:15:45;;;;;;;0.75;0.75;;;14.00;99.90;;;;;;7394521;19;20142;-79
2023/10/26 11:18:11;;;;;;;1.07;0.83;;;14.00;99.90;;;;;;7397122;19;20174;-78
2023/10/26 11:20:38;;;;;;;0.80;0.70;;;14.00;99.90;;;;;;7396838;19;20210;-79
2023/10/26 11:23:05;;;;;;;0.80;0.77;;;14.20;99.90;;;;;;7396292;19;20134;-80
2023/10/26 11:25:31;;;;;;;0.80;0.80;;;14.30;99.90;;;;;;7398167;19;20137;-79
2023/10/26 11:27:57;;;;;;;0.63;0.60;;;14.40;99.90;;;;;;7398227;19;20139;-81
2023/10/26 11:30:23;;;;;;;0.82;0.68;;;14.40;99.90;;;;;;7396466;19;20170;-79
2023/10/26 11:32:48;;;;;;;0.87;0.87;;;14.30;99.90;;;;;;7394044;19;20126;-79
2023/10/26 11:35:16;;;;;;;0.70;0.70;;;14.30;99.90;;;;;;7396504;19;20234;-80
2023/10/26 11:37:47;;;;;;;0.53;0.53;;;14.30;99.90;;;;;;7395415;19;20130;-76
2023/10/26 11:40:14;;;;;;;1.23;0.77;;;14.30;99.90;;;;;;7394362;19;20157;-79
2023/10/26 11:42:43;;;;;;;1.43;1.07;;;14.30;99.90;;;;;;7394068;19;20205;-79
2023/10/26 11:45:09;;;;;;;0.82;0.70;;;14.40;99.90;;;;;;7394200;19;20150;-79
2023/10/26 11:47:47;;;;;;;1.35;0.80;;;14.40;99.90;;;;;;7395565;19;20164;-79
2023/10/26 11:50:24;;;;;;;0.73;0.60;;;14.20;99.90;;;;;;7399669;19;20235;-78
2023/10/26 11:52:52;;;;;;;1.20;1.07;;;14.40;99.90;;;;;;7394028;19;20198;-80
2023/10/26 11:55:19;;;;;;;0.80;0.77;;;14.30;99.90;;;;;;7393656;19;20142;-80
2023/10/26 11:57:46;;;;;;;0.85;0.77;;;14.50;99.90;;;;;;7395448;19;20641;-82
2023/10/26 12:00:12;;;;;;;0.90;0.68;;;14.40;99.90;;;;;;7393898;19;20156;-82
2023/10/26 12:02:39;;;;;;;1.58;0.80;;;14.60;99.90;;;;;;7393368;19;20163;-80
2023/10/26 12:05:11;;;;;;;1.00;0.90;;;14.80;99.90;;;;;;7393627;19;20146;-76
2023/10/26 12:07:37;;;;;;;1.00;0.90;;;14.90;99.90;;;;;;7394599;19;20134;-77
2023/10/26 12:10:03;;;;;;;0.77;0.77;;;15.00;99.90;;;;;;7393697;19;20150;-80
2023/10/26 12:12:29;;;;;;;0.80;0.70;;;15.00;99.90;;;;;;7394800;19;20134;-80
2023/10/26 12:14:55;;;;;;;0.70;0.70;;;14.80;99.90;;;;;;7393496;19;20155;-80
2023/10/26 12:17:21;;;;;;;2.10;0.88;;;14.60;99.90;;;;;;7394287;19;20127;-79
2023/10/26 12:19:46;;;;;;;3.13;0.60;;;14.80;99.90;;;;;;7392754;19;20142;-79
2023/10/26 12:22:12;;;;;;;0.50;0.50;;;14.90;99.90;;;;;;7392783;19;20127;-79
2023/10/26 12:24:38;;;;;;;1.95;0.95;;;15.20;99.90;;;;;;7393244;19;20143;-82
2023/10/26 12:27:04;;;;;;;0.40;0.40;;;15.50;99.90;;;;;;7393907;19;20497;-79
2023/10/26 12:29:31;;;;;;;1.10;0.88;;;15.60;99.90;;;;;;7393280;19;20850;-78
2023/10/26 12:31:57;;;;;;;1.20;0.82;;;15.60;99.90;;;;;;7392720;19;20139;-80
2023/10/26 12:34:23;;;;;;;0.80;0.80;;;15.60;99.90;;;;;;7394755;19;20672;-78
2023/10/26 12:36:49;;;;;;;0.73;0.57;;;15.60;99.90;;;;;;7393021;19;20134;-81
2023/10/26 12:39:14;;;;;;;0.50;0.50;;;15.60;99.90;;;;;;7393570;19;20131;-81
2023/10/26 12:41:40;;;;;;;0.95;0.60;;;15.60;99.90;;;;;;7393990;19;20238;-79
2023/10/26 12:44:06;;;;;;;0.80;0.77;;;15.70;99.90;;;;;;7393970;19;20217;-79
2023/10/26 12:46:31;;;;;;;0.60;0.60;;;15.80;99.90;;;;;;7393287;19;20150;-80